sensor_id;sensor_type;location;lat;lon;timestamp;pressure;altitude;pressure_sealevel;temperature;humidity
24610;BME280;12758;47.890;11.694;2023-04-04T00:00:01;94331.09;;;3.48;100.00
24610;BME280;12758;47.890;11.694;2023-04-04T00:02:30;94325.72;;;3.48;100.00
24610;BME280;12758;47.890;11.694;2023-04-04T00:04:56;94322.25;;;3.47;100.00
24610;BME280;12758;47.890;11.694;2023-04-04T00:07:26;94324.94;;;3.47;100.00
24610;BME280;12758;47.890;11.694;2023-04-04T00:09:55;94323.03;;;3.43;100.00
24610;BME280;12758;47.890;11.694;2023-04-04T00:12:24;94320.91;;;3.40;100.00
24610;BME280;12758;47.890;11.694;2023-04-04T00:14:51;94326.81;;;3.42;100.00
24610;BME280;12758;47.890;11.694;2023-04-04T00:17:20;94324.94;;;3.42;100.00
24610;BME280;12758;47.890;11.694;2023-04-04T00:19:48;94323.84;;;3.43;100.00
24610;BME280;12758;47.890;11.694;2023-04-04T00:22:15;94321.97;;;3.34;100.00
24610;BME280;12758;47.890;11.694;2023-04-04T00:24:41;94316.63;;;3.39;100.00
24610;BME280;12758;47.890;11.694;2023-04-04T00:27:10;94306.69;;;3.39;100.00
24610;BME280;12758;47.890;11.694;2023-04-04T00:29:39;94314.19;;;3.42;100.00
24610;BME280;12758;47.890;11.694;2023-04-04T00:32:06;94305.34;;;3.42;100.00
24610;BME280;12758;47.890;11.694;2023-04-04T00:34:32;94303.22;;;3.34;100.00
24610;BME280;12758;47.890;11.694;2023-04-04T00:37:01;94300.53;;;3.39;100.00
24610;BME280;12758;47.890;11.694;2023-04-04T00:39:30;94299.72;;;3.38;100.00
24610;BME280;12758;47.890;11.694;2023-04-04T00:41:56;94295.16;;;3.39;100.00
24610;BME280;12758;47.890;11.694;2023-04-04T00:44:26;94297.59;;;3.40;100.00
24610;BME280;12758;47.890;11.694;2023-04-04T00:46:52;94294.34;;;3.38;100.00
24610;BME280;12758;47.890;11.694;2023-04-04T00:49:21;94290.34;;;3.36;100.00
24610;BME280;12758;47.890;11.694;2023-04-04T00:51:47;94294.34;;;3.33;100.00
24610;BME280;12758;47.890;11.694;2023-04-04T00:54:16;94289.00;;;3.33;100.00
24610;BME280;12758;47.890;11.694;2023-04-04T00:56:42;94286.06;;;3.30;100.00
24610;BME280;12758;47.890;11.694;2023-04-04T00:59:12;94280.69;;;3.30;100.00
24610;BME280;12758;47.890;11.694;2023-04-04T01:01:42;94283.38;;;3.30;100.00
24610;BME280;12758;47.890;11.694;2023-04-04T01:04:11;94278.28;;;3.28;100.00
24610;BME280;12758;47.890;11.694;2023-04-04T01:06:38;94275.31;;;3.30;100.00
24610;BME280;12758;47.890;11.694;2023-04-04T01:09:07;94280.72;;;3.24;100.00
24610;BME280;12758;47.890;11.694;2023-04-04T01:11:36;94273.75;;;3.18;100.00
24610;BME280;12758;47.890;11.694;2023-04-04T01:14:02;94268.38;;;3.18;100.00
24610;BME280;12758;47.890;11.694;2023-04-04T01:16:28;94272.38;;;3.21;100.00
24610;BME280;12758;47.890;11.694;2023-04-04T01:18:55;94261.94;;;3.19;100.00
24610;BME280;12758;47.890;11.694;2023-04-04T01:21:24;94263.03;;;3.18;100.00
24610;BME280;12758;47.890;11.694;2023-04-04T01:23:57;94269.72;;;3.16;100.00
24610;BME280;12758;47.890;11.694;2023-04-04T01:26:27;94264.34;;;3.21;100.00
24610;BME280;12758;47.890;11.694;2023-04-04T01:28:53;94267.84;;;3.21;100.00
24610;BME280;12758;47.890;11.694;2023-04-04T01:31:27;94256.28;;;3.21;100.00
24610;BME280;12758;47.890;11.694;2023-04-04T01:33:59;94260.84;;;3.20;100.00
24610;BME280;12758;47.890;11.694;2023-04-04T01:36:34;94252.28;;;3.18;100.00
24610;BME280;12758;47.890;11.694;2023-04-04T01:39:09;94250.66;;;3.17;100.00
24610;BME280;12758;47.890;11.694;2023-04-04T01:41:42;94254.44;;;3.16;100.00
24610;BME280;12758;47.890;11.694;2023-04-04T01:44:10;94250.16;;;3.15;100.00
24610;BME280;12758;47.890;11.694;2023-04-04T01:46:39;94254.44;;;3.11;100.00
24610;BME280;12758;47.890;11.694;2023-04-04T01:49:05;94246.94;;;3.13;100.00
24610;BME280;12758;47.890;11.694;2023-04-04T01:51:34;94249.63;;;3.13;100.00
24610;BME280;12758;47.890;11.694;2023-04-04T01:54:01;94251.22;;;3.14;100.00
24610;BME280;12758;47.890;11.694;2023-04-04T01:56:30;94248.00;;;3.12;100.00
24610;BME280;12758;47.890;11.694;2023-04-04T01:58:57;94248.28;;;3.11;100.00
24610;BME280;12758;47.890;11.694;2023-04-04T02:01:27;94248.00;;;3.12;100.00
24610;BME280;12758;47.890;11.694;2023-04-04T02:03:52;94252.59;;;3.12;100.00
24610;BME280;12758;47.890;11.694;2023-04-04T02:06:22;94252.59;;;3.12;100.00
24610;BME280;12758;47.890;11.694;2023-04-04T02:08:48;94257.13;;;3.11;100.00
24610;BME280;12758;47.890;11.694;2023-04-04T02:11:17;94248.00;;;3.12;100.00
24610;BME280;12758;47.890;11.694;2023-04-04T02:13:50;94245.88;;;3.09;100.00
24610;BME280;12758;47.890;11.694;2023-04-04T02:16:16;94248.56;;;3.09;100.00
24610;BME280;12758;47.890;11.694;2023-04-04T02:18:47;94237.56;;;3.06;100.00
24610;BME280;12758;47.890;11.694;2023-04-04T02:21:13;94248.00;;;3.07;100.00
24610;BME280;12758;47.890;11.694;2023-04-04T02:23:42;94245.34;;;3.07;100.00
24610;BME280;12758;47.890;11.694;2023-04-04T02:26:08;94235.69;;;3.01;100.00
24610;BME280;12758;47.890;11.694;2023-04-04T02:28:37;94234.09;;;3.05;100.00
24610;BME280;12758;47.890;11.694;2023-04-04T02:31:03;94243.19;;;3.04;100.00
24610;BME280;12758;47.890;11.694;2023-04-04T02:33:32;94242.13;;;3.05;100.00
24610;BME280;12758;47.890;11.694;2023-04-04T02:35:59;94232.75;;;3.02;100.00
24610;BME280;12758;47.890;11.694;2023-04-04T02:38:28;94249.63;;;3.03;100.00
24610;BME280;12758;47.890;11.694;2023-04-04T02:40:54;94240.25;;;3.00;100.00
24610;BME280;12758;47.890;11.694;2023-04-04T02:43:23;94237.31;;;3.02;100.00
24610;BME280;12758;47.890;11.694;2023-04-04T02:45:49;94234.88;;;3.00;100.00
24610;BME280;12758;47.890;11.694;2023-04-04T02:48:19;94241.34;;;2.99;100.00
24610;BME280;12758;47.890;11.694;2023-04-04T02:50:45;94236.78;;;3.00;100.00
24610;BME280;12758;47.890;11.694;2023-04-04T02:53:15;94231.66;;;2.98;100.00
24610;BME280;12758;47.890;11.694;2023-04-04T02:55:44;94237.84;;;2.99;100.00
24610;BME280;12758;47.890;11.694;2023-04-04T02:58:13;94235.44;;;2.97;100.00
24610;BME280;12758;47.890;11.694;2023-04-04T03:00:39;94229.28;;;2.97;100.00
24610;BME280;12758;47.890;11.694;2023-04-04T03:03:09;94235.72;;;2.96;100.00
24610;BME280;12758;47.890;11.694;2023-04-04T03:05:37;94237.84;;;2.99;100.00
24610;BME280;12758;47.890;11.694;2023-04-04T03:08:04;94233.84;;;2.96;100.00
24610;BME280;12758;47.890;11.694;2023-04-04T03:10:30;94234.09;;;3.00;100.00
24610;BME280;12758;47.890;11.694;2023-04-04T03:12:59;94230.88;;;2.98;100.00
24610;BME280;12758;47.890;11.694;2023-04-04T03:15:28;94231.94;;;2.97;100.00
24610;BME280;12758;47.890;11.694;2023-04-04T03:17:54;94231.41;;;2.95;100.00
24610;BME280;12758;47.890;11.694;2023-04-04T03:20:24;94227.69;;;2.96;100.00
24610;BME280;12758;47.890;11.694;2023-04-04T03:22:50;94232.78;;;2.92;100.00
24610;BME280;12758;47.890;11.694;2023-04-04T03:25:20;94232.25;;;2.95;100.00
24610;BME280;12758;47.890;11.694;2023-04-04T03:27:46;94230.91;;;2.93;100.00
24610;BME280;12758;47.890;11.694;2023-04-04T03:30:15;94229.28;;;2.92;100.00
24610;BME280;12758;47.890;11.694;2023-04-04T03:32:41;94227.97;;;2.89;100.00
24610;BME280;12758;47.890;11.694;2023-04-04T03:35:10;94227.97;;;2.89;100.00
24610;BME280;12758;47.890;11.694;2023-04-04T03:37:37;94228.22;;;2.83;100.00
24610;BME280;12758;47.890;11.694;2023-04-04T03:40:08;94222.03;;;2.82;100.00
24610;BME280;12758;47.890;11.694;2023-04-04T03:42:35;94222.88;;;2.83;100.00
24610;BME280;12758;47.890;11.694;2023-04-04T03:45:04;94232.75;;;2.82;100.00
24610;BME280;12758;47.890;11.694;2023-04-04T03:47:34;94228.50;;;2.81;100.00
24610;BME280;12758;47.890;11.694;2023-04-04T03:50:04;94230.38;;;2.80;100.00
24610;BME280;12758;47.890;11.694;2023-04-04T03:52:36;94230.91;;;2.77;100.00
24610;BME280;12758;47.890;11.694;2023-04-04T03:55:05;94234.66;;;2.76;100.00
24610;BME280;12758;47.890;11.694;2023-04-04T03:57:35;94229.56;;;2.75;100.00
24610;BME280;12758;47.890;11.694;2023-04-04T04:00:02;94232.53;;;2.73;100.00
24610;BME280;12758;47.890;11.694;2023-04-04T04:02:28;94230.09;;;2.72;100.00
24610;BME280;12758;47.890;11.694;2023-04-04T04:04:57;94238.41;;;2.65;100.00
24610;BME280;12758;47.890;11.694;2023-04-04T04:07:26;94233.06;;;2.65;100.00
24610;BME280;12758;47.890;11.694;2023-04-04T04:09:52;94244.31;;;2.62;100.00
24610;BME280;12758;47.890;11.694;2023-04-04T04:12:19;94244.31;;;2.62;100.00
24610;BME280;12758;47.890;11.694;2023-04-04T04:14:48;94244.31;;;2.62;100.00
24610;BME280;12758;47.890;11.694;2023-04-04T04:17:17;94236.56;;;2.61;100.00
24610;BME280;12758;47.890;11.694;2023-04-04T04:19:44;94244.84;;;2.59;100.00
24610;BME280;12758;47.890;11.694;2023-04-04T04:22:12;94248.59;;;2.58;100.00
24610;BME280;12758;47.890;11.694;2023-04-04T04:24:38;94249.16;;;2.55;100.00
24610;BME280;12758;47.890;11.694;2023-04-04T04:27:07;94258.25;;;2.54;100.00
24610;BME280;12758;47.890;11.694;2023-04-04T04:29:33;94250.47;;;2.52;100.00
24610;BME280;12758;47.890;11.694;2023-04-04T04:32:03;94252.06;;;2.53;100.00
24610;BME280;12758;47.890;11.694;2023-04-04T04:34:29;94255.03;;;2.52;100.00
24610;BME280;12758;47.890;11.694;2023-04-04T04:36:58;94253.44;;;2.51;100.00
24610;BME280;12758;47.890;11.694;2023-04-04T04:39:24;94253.44;;;2.51;100.00
24610;BME280;12758;47.890;11.694;2023-04-04T04:41:53;94251.28;;;2.48;100.00
24610;BME280;12758;47.890;11.694;2023-04-04T04:44:19;94259.31;;;2.48;100.00
24610;BME280;12758;47.890;11.694;2023-04-04T04:46:48;94257.69;;;2.47;100.00
24610;BME280;12758;47.890;11.694;2023-04-04T04:49:15;94256.09;;;2.46;100.00
24610;BME280;12758;47.890;11.694;2023-04-04T04:51:44;94255.31;;;2.45;100.00
24610;BME280;12758;47.890;11.694;2023-04-04T04:54:10;94254.50;;;2.45;100.00
24610;BME280;12758;47.890;11.694;2023-04-04T04:56:39;94259.56;;;2.31;100.00
24610;BME280;12758;47.890;11.694;2023-04-04T04:59:08;94260.94;;;2.39;100.00
24610;BME280;12758;47.890;11.694;2023-04-04T05:01:38;94260.94;;;2.39;100.00
24610;BME280;12758;47.890;11.694;2023-04-04T05:04:04;94267.88;;;2.40;100.00
24610;BME280;12758;47.890;11.694;2023-04-04T05:06:34;94265.75;;;2.42;100.00
24610;BME280;12758;47.890;11.694;2023-04-04T05:09:03;94266.28;;;2.39;100.00
24610;BME280;12758;47.890;11.694;2023-04-04T05:11:29;94260.94;;;2.39;100.00
24610;BME280;12758;47.890;11.694;2023-04-04T05:13:56;94267.34;;;2.32;100.00
24610;BME280;12758;47.890;11.694;2023-04-04T05:16:25;94267.88;;;2.29;100.00
24610;BME280;12758;47.890;11.694;2023-04-04T05:18:53;94273.25;;;2.35;100.00
24610;BME280;12758;47.890;11.694;2023-04-04T05:21:19;94267.88;;;2.35;100.00
24610;BME280;12758;47.890;11.694;2023-04-04T05:23:46;94282.34;;;2.33;100.00
24610;BME280;12758;47.890;11.694;2023-04-04T05:26:13;94276.47;;;2.31;100.00
24610;BME280;12758;47.890;11.694;2023-04-04T05:28:42;94276.44;;;2.37;100.00
24610;BME280;12758;47.890;11.694;2023-04-04T05:31:08;94278.59;;;2.40;100.00
24610;BME280;12758;47.890;11.694;2023-04-04T05:33:37;94276.19;;;2.38;100.00
24610;BME280;12758;47.890;11.694;2023-04-04T05:36:03;94273.22;;;2.19;100.00
24610;BME280;12758;47.890;11.694;2023-04-04T05:38:32;94279.13;;;2.26;100.00
24610;BME280;12758;47.890;11.694;2023-04-04T05:40:59;94277.25;;;2.32;100.00
24610;BME280;12758;47.890;11.694;2023-04-04T05:43:28;94279.66;;;2.33;100.00
24610;BME280;12758;47.890;11.694;2023-04-04T05:45:54;94285.53;;;2.30;100.00
24610;BME280;12758;47.890;11.694;2023-04-04T05:48:23;94284.75;;;2.30;100.00
24610;BME280;12758;47.890;11.694;2023-04-04T05:50:52;94288.22;;;2.25;100.00
24610;BME280;12758;47.890;11.694;2023-04-04T05:53:21;94285.03;;;2.28;100.00
24610;BME280;12758;47.890;11.694;2023-04-04T05:55:50;94289.31;;;2.35;100.00
24610;BME280;12758;47.890;11.694;2023-04-04T05:58:20;94289.56;;;2.33;100.00
24610;BME280;12758;47.890;11.694;2023-04-04T06:00:46;94283.13;;;2.19;100.00
24610;BME280;12758;47.890;11.694;2023-04-04T06:03:12;94285.50;;;2.10;100.00
24610;BME280;12758;47.890;11.694;2023-04-04T06:05:38;94289.28;;;2.19;100.00
24610;BME280;12758;47.890;11.694;2023-04-04T06:08:09;94288.22;;;2.25;100.00
24610;BME280;12758;47.890;11.694;2023-04-04T06:10:38;94296.28;;;2.36;100.00
24610;BME280;12758;47.890;11.694;2023-04-04T06:13:08;94286.91;;;2.38;100.00
24610;BME280;12758;47.890;11.694;2023-04-04T06:15:37;94287.97;;;2.42;100.00
24610;BME280;12758;47.890;11.694;2023-04-04T06:18:06;94282.34;;;2.39;100.00
24610;BME280;12758;47.890;11.694;2023-04-04T06:20:35;94292.00;;;2.45;100.00
24610;BME280;12758;47.890;11.694;2023-04-04T06:23:01;94284.50;;;2.31;100.00
24610;BME280;12758;47.890;11.694;2023-04-04T06:25:31;94288.25;;;2.46;100.00
24610;BME280;12758;47.890;11.694;2023-04-04T06:27:57;94292.00;;;2.45;100.00
24610;BME280;12758;47.890;11.694;2023-04-04T06:30:24;94289.59;;;2.53;100.00
24610;BME280;12758;47.890;11.694;2023-04-04T06:32:51;94290.66;;;2.52;100.00
24610;BME280;12758;47.890;11.694;2023-04-04T06:35:20;94281.81;;;2.52;100.00
24610;BME280;12758;47.890;11.694;2023-04-04T06:37:46;94286.66;;;2.55;100.00
24610;BME280;12758;47.890;11.694;2023-04-04T06:40:15;94285.59;;;2.61;100.00
24610;BME280;12758;47.890;11.694;2023-04-04T06:42:46;94285.59;;;2.61;99.75
24610;BME280;12758;47.890;11.694;2023-04-04T06:45:17;94278.06;;;2.68;98.77
24610;BME280;12758;47.890;11.694;2023-04-04T06:47:43;94281.81;;;2.52;98.09
24610;BME280;12758;47.890;11.694;2023-04-04T06:50:13;94282.34;;;2.69;98.73
24610;BME280;12758;47.890;11.694;2023-04-04T06:52:40;94276.75;;;2.71;98.44
24610;BME280;12758;47.890;11.694;2023-04-04T06:55:09;94278.63;;;2.45;100.00
24610;BME280;12758;47.890;11.694;2023-04-04T06:57:35;94277.28;;;2.68;99.54
24610;BME280;12758;47.890;11.694;2023-04-04T07:00:07;94279.41;;;2.76;97.77
24610;BME280;12758;47.890;11.694;2023-04-04T07:02:36;94268.97;;;2.85;96.77
24610;BME280;12758;47.890;11.694;2023-04-04T07:05:02;94277.00;;;2.90;95.46
24610;BME280;12758;47.890;11.694;2023-04-04T07:07:29;94280.75;;;2.99;94.63
24610;BME280;12758;47.890;11.694;2023-04-04T07:09:58;94273.75;;;3.08;94.46
24610;BME280;12758;47.890;11.694;2023-04-04T07:12:27;94277.78;;;3.11;93.62
24610;BME280;12758;47.890;11.694;2023-04-04T07:14:54;94274.31;;;3.05;93.85
24610;BME280;12758;47.890;11.694;2023-04-04T07:17:23;94277.50;;;3.17;94.24
24610;BME280;12758;47.890;11.694;2023-04-04T07:19:49;94272.69;;;3.04;89.55
24610;BME280;12758;47.890;11.694;2023-04-04T07:22:20;94274.25;;;3.20;91.73
24610;BME280;12758;47.890;11.694;2023-04-04T07:24:47;94269.47;;;3.12;91.86
24610;BME280;12758;47.890;11.694;2023-04-04T07:27:16;94272.66;;;3.19;90.85
24610;BME280;12758;47.890;11.694;2023-04-04T07:29:42;94275.09;;;3.16;90.54
24610;BME280;12758;47.890;11.694;2023-04-04T07:32:11;94275.66;;;3.02;92.13
24610;BME280;12758;47.890;11.694;2023-04-04T07:34:37;94279.41;;;2.81;94.76
24610;BME280;12758;47.890;11.694;2023-04-04T07:37:06;94278.63;;;2.45;91.57
24610;BME280;12758;47.890;11.694;2023-04-04T07:39:32;94285.03;;;2.44;97.97
24610;BME280;12758;47.890;11.694;2023-04-04T07:42:02;94270.03;;;2.32;98.74
24610;BME280;12758;47.890;11.694;2023-04-04T07:44:28;94283.16;;;2.49;98.99
24610;BME280;12758;47.890;11.694;2023-04-04T07:46:57;94271.91;;;2.52;98.04
24610;BME280;12758;47.890;11.694;2023-04-04T07:49:23;94270.59;;;2.60;96.79
24610;BME280;12758;47.890;11.694;2023-04-04T07:51:52;94273.78;;;2.52;96.86
24610;BME280;12758;47.890;11.694;2023-04-04T07:54:19;94278.06;;;2.63;97.29
24610;BME280;12758;47.890;11.694;2023-04-04T07:56:51;94274.84;;;2.56;96.66
24610;BME280;12758;47.890;11.694;2023-04-04T07:59:21;94276.97;;;2.44;97.79
24610;BME280;12758;47.890;11.694;2023-04-04T08:01:50;94272.97;;;2.36;96.20
24610;BME280;12758;47.890;11.694;2023-04-04T08:04:19;94276.72;;;2.45;98.04
24610;BME280;12758;47.890;11.694;2023-04-04T08:06:45;94281.28;;;2.45;97.60
24610;BME280;12758;47.890;11.694;2023-04-04T08:09:11;94286.13;;;2.48;97.45
24610;BME280;12758;47.890;11.694;2023-04-04T08:11:37;94276.47;;;2.57;96.60
24610;BME280;12758;47.890;11.694;2023-04-04T08:14:06;94278.63;;;2.55;94.86
24610;BME280;12758;47.890;11.694;2023-04-04T08:16:36;94276.19;;;2.69;94.26
24610;BME280;12758;47.890;11.694;2023-04-04T08:19:06;94278.06;;;2.63;94.26
24610;BME280;12758;47.890;11.694;2023-04-04T08:21:32;94274.56;;;2.37;91.03
24610;BME280;12758;47.890;11.694;2023-04-04T08:24:01;94264.63;;;2.07;87.89
24610;BME280;12758;47.890;11.694;2023-04-04T08:26:27;94272.16;;;2.25;95.74
24610;BME280;12758;47.890;11.694;2023-04-04T08:28:56;94269.44;;;2.10;93.07
24610;BME280;12758;47.890;11.694;2023-04-04T08:31:22;94281.25;;;2.24;94.49
24610;BME280;12758;47.890;11.694;2023-04-04T08:33:52;94270.28;;;2.31;94.85
24610;BME280;12758;47.890;11.694;2023-04-04T08:36:21;94270.81;;;2.28;93.60
24610;BME280;12758;47.890;11.694;2023-04-04T08:38:50;94267.59;;;2.31;92.36
24610;BME280;12758;47.890;11.694;2023-04-04T08:41:16;94268.94;;;2.33;93.19
24610;BME280;12758;47.890;11.694;2023-04-04T08:43:46;94271.09;;;2.31;92.10
24610;BME280;12758;47.890;11.694;2023-04-04T08:46:21;94280.19;;;2.30;91.75
24610;BME280;12758;47.890;11.694;2023-04-04T08:48:47;94281.81;;;2.31;90.41
24610;BME280;12758;47.890;11.694;2023-04-04T08:51:15;94283.41;;;2.22;89.25
24610;BME280;12758;47.890;11.694;2023-04-04T08:53:44;94279.94;;;2.32;91.16
24610;BME280;12758;47.890;11.694;2023-04-04T08:56:14;94285.53;;;2.30;89.71
24610;BME280;12758;47.890;11.694;2023-04-04T08:58:40;94282.34;;;2.28;90.57
24610;BME280;12758;47.890;11.694;2023-04-04T09:01:09;94281.81;;;2.31;91.20
24610;BME280;12758;47.890;11.694;2023-04-04T09:03:35;94279.91;;;2.27;89.41
24610;BME280;12758;47.890;11.694;2023-04-04T09:06:05;94271.91;;;2.32;89.90
24610;BME280;12758;47.890;11.694;2023-04-04T09:08:33;94286.09;;;2.32;89.93
24610;BME280;12758;47.890;11.694;2023-04-04T09:11:02;94272.44;;;2.29;88.35
24610;BME280;12758;47.890;11.694;2023-04-04T09:13:29;94274.03;;;2.30;88.48
24610;BME280;12758;47.890;11.694;2023-04-04T09:15:58;94283.94;;;2.29;87.66
24610;BME280;12758;47.890;11.694;2023-04-04T09:18:27;94274.03;;;2.30;88.06
24610;BME280;12758;47.890;11.694;2023-04-04T09:20:57;94270.56;;;2.35;85.68
24610;BME280;12758;47.890;11.694;2023-04-04T09:23:23;94272.09;;;2.05;79.59
24610;BME280;12758;47.890;11.694;2023-04-04T09:25:54;94275.94;;;2.35;86.03
24610;BME280;12758;47.890;11.694;2023-04-04T09:28:23;94273.22;;;2.29;84.17
24610;BME280;12758;47.890;11.694;2023-04-04T09:30:49;94275.63;;;2.26;85.05
24610;BME280;12758;47.890;11.694;2023-04-04T09:33:17;94286.13;;;2.48;87.01
24610;BME280;12758;47.890;11.694;2023-04-04T09:35:48;94282.88;;;2.46;86.90
24610;BME280;12758;47.890;11.694;2023-04-04T09:38:20;94281.81;;;2.42;86.86
24610;BME280;12758;47.890;11.694;2023-04-04T09:40:46;94283.44;;;2.38;88.18
24610;BME280;12758;47.890;11.694;2023-04-04T09:43:13;94276.44;;;2.26;86.11
24610;BME280;12758;47.890;11.694;2023-04-04T09:45:44;94276.72;;;2.25;86.18
24610;BME280;12758;47.890;11.694;2023-04-04T09:48:16;94278.50;;;1.99;84.90
24610;BME280;12758;47.890;11.694;2023-04-04T09:50:49;94275.41;;;2.38;86.80
24610;BME280;12758;47.890;11.694;2023-04-04T09:53:16;94289.03;;;2.46;85.72
24610;BME280;12758;47.890;11.694;2023-04-04T09:55:49;94286.09;;;2.43;85.31
24610;BME280;12758;47.890;11.694;2023-04-04T09:58:22;94284.50;;;2.47;84.82
24610;BME280;12758;47.890;11.694;2023-04-04T10:00:50;94290.94;;;2.46;82.90
24610;BME280;12758;47.890;11.694;2023-04-04T10:03:17;94288.78;;;2.43;82.91
24610;BME280;12758;47.890;11.694;2023-04-04T10:05:54;94290.91;;;2.41;80.83
24610;BME280;12758;47.890;11.694;2023-04-04T10:08:23;94295.19;;;2.47;82.93
24610;BME280;12758;47.890;11.694;2023-04-04T10:10:55;94289.34;;;2.60;81.30
24610;BME280;12758;47.890;11.694;2023-04-04T10:13:22;94293.06;;;2.69;80.42
24610;BME280;12758;47.890;11.694;2023-04-04T10:15:53;94293.63;;;2.61;79.79
24610;BME280;12758;47.890;11.694;2023-04-04T10:18:23;94289.88;;;2.57;80.34
24610;BME280;12758;47.890;11.694;2023-04-04T10:20:50;94289.31;;;2.50;75.78
24610;BME280;12758;47.890;11.694;2023-04-04T10:23:16;94282.34;;;2.33;77.88
24610;BME280;12758;47.890;11.694;2023-04-04T10:25:45;94289.84;;;2.98;77.84
24610;BME280;12758;47.890;11.694;2023-04-04T10:28:14;94286.88;;;2.28;69.06
24610;BME280;12758;47.890;11.694;2023-04-04T10:30:49;94273.78;;;2.37;75.08
24610;BME280;12758;47.890;11.694;2023-04-04T10:33:21;94293.59;;;2.46;78.66
24610;BME280;12758;47.890;11.694;2023-04-04T10:35:49;94290.94;;;2.61;80.03
24610;BME280;12758;47.890;11.694;2023-04-04T10:38:22;94286.09;;;2.63;80.22
24610;BME280;12758;47.890;11.694;2023-04-04T10:40:50;94293.63;;;2.61;78.11
24610;BME280;12758;47.890;11.694;2023-04-04T10:43:24;94281.28;;;2.65;77.03
24610;BME280;12758;47.890;11.694;2023-04-04T10:45:51;94276.22;;;2.74;74.12
24610;BME280;12758;47.890;11.694;2023-04-04T10:48:20;94262.97;;;1.96;72.42
24610;BME280;12758;47.890;11.694;2023-04-04T10:50:47;94282.31;;;3.20;77.66
24610;BME280;12758;47.890;11.694;2023-04-04T10:53:16;94277.19;;;3.44;75.36
24610;BME280;12758;47.890;11.694;2023-04-04T10:55:43;94282.06;;;3.17;76.59
24610;BME280;12758;47.890;11.694;2023-04-04T10:58:13;94284.91;;;3.56;74.46
24610;BME280;12758;47.890;11.694;2023-04-04T11:00:50;94282.56;;;3.34;74.80
24610;BME280;12758;47.890;11.694;2023-04-04T11:03:20;94285.56;;;3.12;76.47
24610;BME280;12758;47.890;11.694;2023-04-04T11:05:47;94285.56;;;3.02;76.87
24610;BME280;12758;47.890;11.694;2023-04-04T11:08:21;94287.69;;;3.15;75.97
24610;BME280;12758;47.890;11.694;2023-04-04T11:10:49;94281.78;;;3.08;75.59
24610;BME280;12758;47.890;11.694;2023-04-04T11:13:19;94272.19;;;2.61;69.74
24610;BME280;12758;47.890;11.694;2023-04-04T11:15:54;94270.03;;;2.58;75.11
24610;BME280;12758;47.890;11.694;2023-04-04T11:18:45;94274.06;;;2.81;76.68
24610;BME280;12758;47.890;11.694;2023-04-04T11:21:13;94275.41;;;2.84;77.43
24610;BME280;12758;47.890;11.694;2023-04-04T11:24:13;94267.34;;;2.84;75.34
24610;BME280;12758;47.890;11.694;2023-04-04T11:26:42;94260.09;;;2.79;71.17
24610;BME280;12758;47.890;11.694;2023-04-04T11:29:20;94257.16;;;2.40;73.90
24610;BME280;12758;47.890;11.694;2023-04-04T11:31:47;94256.63;;;2.94;76.27
24610;BME280;12758;47.890;11.694;2023-04-04T11:34:31;94259.56;;;3.02;73.73
24610;BME280;12758;47.890;11.694;2023-04-04T11:36:57;94256.59;;;3.04;74.42
24610;BME280;12758;47.890;11.694;2023-04-04T11:39:30;94258.78;;;3.02;73.98
24610;BME280;12758;47.890;11.694;2023-04-04T11:42:00;94258.78;;;3.02;72.47
24610;BME280;12758;47.890;11.694;2023-04-04T11:44:33;94257.66;;;3.18;73.40
24610;BME280;12758;47.890;11.694;2023-04-04T11:47:01;94254.97;;;3.08;71.95
24610;BME280;12758;47.890;11.694;2023-04-04T11:49:34;94256.56;;;3.24;73.27
24610;BME280;12758;47.890;11.694;2023-04-04T11:52:03;94258.16;;;3.36;71.63
24610;BME280;12758;47.890;11.694;2023-04-04T11:54:34;94264.59;;;3.30;72.35
24610;BME280;12758;47.890;11.694;2023-04-04T11:57:00;94258.97;;;3.21;72.57
24610;BME280;12758;47.890;11.694;2023-04-04T11:59:31;94257.66;;;3.18;73.43
24610;BME280;12758;47.890;11.694;2023-04-04T12:01:57;94253.94;;;2.78;71.08
24610;BME280;12758;47.890;11.694;2023-04-04T12:04:27;94256.34;;;2.90;73.23
24610;BME280;12758;47.890;11.694;2023-04-04T12:06:54;94248.59;;;2.99;74.07
24610;BME280;12758;47.890;11.694;2023-04-04T12:09:24;94253.91;;;3.04;75.13
24610;BME280;12758;47.890;11.694;2023-04-04T12:11:51;94256.06;;;3.07;75.43
24610;BME280;12758;47.890;11.694;2023-04-04T12:14:20;94248.56;;;2.89;68.74
24610;BME280;12758;47.890;11.694;2023-04-04T12:16:48;94256.91;;;2.87;73.06
24610;BME280;12758;47.890;11.694;2023-04-04T12:19:18;94253.91;;;3.19;74.36
24610;BME280;12758;47.890;11.694;2023-04-04T12:21:47;94249.06;;;3.16;74.10
24610;BME280;12758;47.890;11.694;2023-04-04T12:24:14;94252.28;;;3.08;74.22
24610;BME280;12758;47.890;11.694;2023-04-04T12:26:41;94256.63;;;2.89;71.14
24610;BME280;12758;47.890;11.694;2023-04-04T12:29:12;94248.59;;;2.68;65.41
24610;BME280;12758;47.890;11.694;2023-04-04T12:31:42;94238.13;;;2.10;63.84
24610;BME280;12758;47.890;11.694;2023-04-04T12:34:15;94240.56;;;2.22;69.85
24610;BME280;12758;47.890;11.694;2023-04-04T12:36:41;94238.94;;;2.93;76.63
24610;BME280;12758;47.890;11.694;2023-04-04T12:39:08;94248.53;;;3.14;75.83
24610;BME280;12758;47.890;11.694;2023-04-04T12:41:46;94243.44;;;3.13;75.69
24610;BME280;12758;47.890;11.694;2023-04-04T12:44:25;94240.03;;;2.56;71.00
24610;BME280;12758;47.890;11.694;2023-04-04T12:46:51;94237.63;;;2.65;72.10
24610;BME280;12758;47.890;11.694;2023-04-04T12:49:20;94236.50;;;2.91;76.46
24610;BME280;12758;47.890;11.694;2023-04-04T12:51:51;94243.50;;;2.92;77.08
24610;BME280;12758;47.890;11.694;2023-04-04T12:54:25;94240.78;;;2.97;75.81
24610;BME280;12758;47.890;11.694;2023-04-04T12:56:56;94237.84;;;2.99;76.17
24610;BME280;12758;47.890;11.694;2023-04-04T12:59:23;94231.97;;;2.82;68.62
24610;BME280;12758;47.890;11.694;2023-04-04T13:01:52;94231.44;;;2.74;65.09